createdAt,value
2022-12-28T00:01:11.385Z,27.75
2022-12-28T00:03:19.450Z,23.60
2022-12-28T00:05:27.326Z,23.33
2022-12-28T00:07:36.134Z,24.08
2022-12-28T00:09:43.905Z,26.17
2022-12-28T00:11:53.371Z,23.15
2022-12-28T00:14:04.956Z,23.65
2022-12-28T00:16:16.346Z,22.90
2022-12-28T00:18:24.119Z,28.42
2022-12-28T00:20:32.020Z,30.35
2022-12-28T00:22:40.057Z,30.85
2022-12-28T00:24:48.152Z,28.67
2022-12-28T00:26:58.286Z,26.13
2022-12-28T00:29:09.360Z,23.90
2022-12-28T00:31:17.619Z,25.50
2022-12-28T00:33:27.090Z,26.15
2022-12-28T00:35:34.901Z,24.88
2022-12-28T00:37:43.713Z,23.73
2022-12-28T00:39:51.494Z,21.58
2022-12-28T00:41:59.318Z,23.90
2022-12-28T00:44:10.034Z,24.25
2022-12-28T00:46:18.281Z,22.48
2022-12-28T00:48:26.517Z,28.20
2022-12-28T00:50:34.501Z,22.63
2022-12-28T00:52:42.631Z,23.85
2022-12-28T00:54:50.613Z,23.30
2022-12-28T00:56:58.916Z,22.95
2022-12-28T00:59:09.349Z,22.00
2022-12-28T01:01:20.725Z,20.73
2022-12-28T01:03:29.369Z,22.95
2022-12-28T01:05:42.076Z,21.20
2022-12-28T01:07:50.260Z,23.50
2022-12-28T01:09:58.164Z,21.17
2022-12-28T01:12:06.270Z,25.30
2022-12-28T01:14:16.741Z,21.45
2022-12-28T01:16:27.871Z,21.48
2022-12-28T01:18:36.236Z,22.67
2022-12-28T01:20:45.497Z,22.60
2022-12-28T01:22:53.601Z,21.95
2022-12-28T01:25:01.539Z,21.90
2022-12-28T01:27:09.768Z,21.98
2022-12-28T01:29:22.151Z,21.75
2022-12-28T01:31:30.666Z,25.73
2022-12-28T01:33:38.977Z,21.90
2022-12-28T01:35:49.598Z,21.17
2022-12-28T01:37:59.775Z,22.63
2022-12-28T01:40:09.222Z,17.23
2022-12-28T01:42:21.623Z,20.00
2022-12-28T01:44:51.458Z,20.33
2022-12-28T01:47:05.952Z,23.52
2022-12-28T01:49:19.011Z,23.77
2022-12-28T01:51:29.664Z,26.00
2022-12-28T01:53:37.554Z,25.98
2022-12-28T01:55:48.183Z,23.17
2022-12-28T01:58:01.791Z,24.33
2022-12-28T02:00:16.911Z,21.80
2022-12-28T02:02:28.723Z,22.70
2022-12-28T02:04:36.771Z,27.65
2022-12-28T02:06:44.905Z,27.02
2022-12-28T02:09:01.209Z,25.30
2022-12-28T02:11:12.424Z,24.50
2022-12-28T02:13:21.329Z,22.17
2022-12-28T02:15:34.506Z,24.35
2022-12-28T02:17:43.148Z,21.42
2022-12-28T02:19:52.269Z,23.00
2022-12-28T02:22:19.931Z,24.20
2022-12-28T02:25:12.483Z,20.67
2022-12-28T02:27:35.256Z,21.77
2022-12-28T02:30:13.982Z,19.33
2022-12-28T02:32:34.217Z,18.55
2022-12-28T02:34:51.396Z,21.35
2022-12-28T02:37:04.854Z,19.60
2022-12-28T02:39:21.592Z,16.02
2022-12-28T02:41:29.690Z,15.80
2022-12-28T02:43:37.999Z,14.55
2022-12-28T02:46:00.427Z,13.50
2022-12-28T02:48:27.276Z,13.55
2022-12-28T02:50:45.676Z,15.98
2022-12-28T02:53:22.264Z,12.40
2022-12-28T02:55:59.424Z,12.50
2022-12-28T02:58:33.439Z,12.32
2022-12-28T03:00:56.624Z,14.23
2022-12-28T03:03:20.911Z,11.57
2022-12-28T03:05:51.248Z,10.10
2022-12-28T03:08:17.691Z,9.75
2022-12-28T03:10:31.740Z,10.68
2022-12-28T03:12:48.217Z,8.25
2022-12-28T03:15:04.108Z,10.82
2022-12-28T03:17:27.366Z,7.13
2022-12-28T03:19:55.585Z,7.38
2022-12-28T03:22:16.053Z,7.47
2022-12-28T03:24:36.476Z,9.13
2022-12-28T03:27:00.632Z,9.13
2022-12-28T03:29:28.895Z,12.02
2022-12-28T03:31:39.778Z,12.23
2022-12-28T03:34:06.687Z,15.07
2022-12-28T03:36:29.141Z,15.25
2022-12-28T03:38:50.396Z,13.65
2022-12-28T03:41:05.533Z,13.70
2022-12-28T03:43:32.980Z,16.10
2022-12-28T03:45:49.823Z,14.23
2022-12-28T03:48:05.064Z,13.65
2022-12-28T03:50:14.907Z,14.30
2022-12-28T03:52:25.594Z,14.23
2022-12-28T03:54:33.428Z,13.60
2022-12-28T03:56:48.934Z,14.23
2022-12-28T03:59:00.332Z,14.57
2022-12-28T04:01:17.820Z,14.98
2022-12-28T04:03:26.271Z,14.70
2022-12-28T04:05:34.272Z,13.50
2022-12-28T04:07:44.967Z,17.20
2022-12-28T04:09:53.444Z,17.98
2022-12-28T04:12:01.365Z,17.15
2022-12-28T04:14:27.548Z,16.02
2022-12-28T04:16:35.808Z,12.45
2022-12-28T04:18:47.376Z,10.82
2022-12-28T04:20:56.348Z,9.35
2022-12-28T04:23:07.407Z,9.98
2022-12-28T04:25:15.373Z,9.52
2022-12-28T04:27:24.302Z,8.45
2022-12-28T04:29:35.884Z,9.55
2022-12-28T04:31:50.799Z,8.82
2022-12-28T04:34:01.683Z,8.40
2022-12-28T04:36:15.641Z,9.02
2022-12-28T04:38:27.574Z,10.20
2022-12-28T04:40:35.376Z,8.60
2022-12-28T04:42:43.201Z,8.60
2022-12-28T04:44:51.052Z,8.48
2022-12-28T04:46:59.273Z,7.88
2022-12-28T04:49:07.417Z,8.18
2022-12-28T04:51:20.966Z,8.32
2022-12-28T04:53:31.392Z,8.27
2022-12-28T04:55:39.214Z,8.18
2022-12-28T04:57:47.203Z,7.93
2022-12-28T04:59:55.059Z,7.90
2022-12-28T05:02:02.993Z,7.95
2022-12-28T05:04:10.982Z,7.97
2022-12-28T05:06:21.667Z,9.88
2022-12-28T05:08:34.596Z,7.70
2022-12-28T05:10:42.336Z,6.50
2022-12-28T05:12:50.721Z,6.63
2022-12-28T05:14:58.565Z,6.85
2022-12-28T05:17:06.836Z,6.50
2022-12-28T05:19:14.685Z,6.32
2022-12-28T05:21:24.938Z,6.05
2022-12-28T05:23:37.262Z,6.93
2022-12-28T05:25:45.025Z,6.07
2022-12-28T05:27:52.862Z,5.68
2022-12-28T05:30:00.773Z,5.68
2022-12-28T05:32:09.208Z,5.43
2022-12-28T05:34:17.138Z,5.25
2022-12-28T05:36:27.741Z,4.85
2022-12-28T05:38:38.910Z,5.00
2022-12-28T05:40:46.977Z,4.68
2022-12-28T05:42:55.067Z,5.15
2022-12-28T05:45:03.118Z,4.00
2022-12-28T05:47:11.233Z,4.43
2022-12-28T05:49:19.516Z,3.90
2022-12-28T05:51:29.243Z,3.70
2022-12-28T05:53:40.715Z,3.85
2022-12-28T05:55:49.016Z,3.80
2022-12-28T05:57:57.737Z,3.30
2022-12-28T06:00:06.456Z,3.80
2022-12-28T06:02:24.535Z,3.00
2022-12-28T06:04:32.797Z,3.22
2022-12-28T06:06:40.697Z,3.33
2022-12-28T06:08:52.111Z,3.50
2022-12-28T06:11:02.967Z,4.55
2022-12-28T06:13:11.062Z,2.45
2022-12-28T06:15:18.956Z,3.45
2022-12-28T06:17:26.954Z,3.40
2022-12-28T06:19:34.875Z,3.63
2022-12-28T06:21:43.468Z,3.45
2022-12-28T06:23:55.007Z,4.50
2022-12-28T06:26:03.071Z,5.13
2022-12-28T06:28:10.946Z,7.93
2022-12-28T06:30:18.910Z,9.60
2022-12-28T06:32:26.731Z,6.53
2022-12-28T06:34:34.685Z,5.50
2022-12-28T06:36:44.700Z,5.47
2022-12-28T06:38:56.870Z,5.30
2022-12-28T06:41:14.775Z,4.63
2022-12-28T06:43:22.989Z,4.95
2022-12-28T06:45:30.817Z,4.88
2022-12-28T06:47:40.280Z,4.65
2022-12-28T06:49:48.286Z,5.05
2022-12-28T06:51:56.082Z,7.53
2022-12-28T06:54:06.580Z,5.50
2022-12-28T06:56:16.688Z,5.65
2022-12-28T06:58:24.904Z,5.60
2022-12-28T07:00:32.856Z,5.65
2022-12-28T07:02:40.814Z,4.80
2022-12-28T07:04:48.962Z,5.28
2022-12-28T07:06:56.798Z,5.07
2022-12-28T07:09:10.590Z,5.07
2022-12-28T07:11:21.118Z,4.55
2022-12-28T07:13:29.153Z,4.43
2022-12-28T07:15:38.491Z,4.18
2022-12-28T07:17:46.397Z,3.90
2022-12-28T07:19:54.196Z,3.75
2022-12-28T07:22:02.075Z,4.18
2022-12-28T07:24:13.917Z,3.90
2022-12-28T07:26:23.915Z,4.65
2022-12-28T07:28:31.763Z,4.63
2022-12-28T07:30:39.727Z,4.00
2022-12-28T07:32:47.953Z,4.40
2022-12-28T07:34:55.915Z,5.13
2022-12-28T07:37:03.650Z,4.55
2022-12-28T07:39:14.376Z,5.13
2022-12-28T07:41:24.466Z,5.50
2022-12-28T07:43:33.151Z,6.50
2022-12-28T07:45:41.216Z,5.30
2022-12-28T07:47:49.350Z,5.70
2022-12-28T07:49:57.189Z,5.88
2022-12-28T07:52:05.147Z,5.20
2022-12-28T07:54:15.736Z,5.20
2022-12-28T07:56:24.994Z,7.35
2022-12-28T07:58:33.120Z,5.88
2022-12-28T08:00:41.177Z,6.00
2022-12-28T08:02:49.269Z,6.72
2022-12-28T08:04:57.244Z,6.30
2022-12-28T08:07:05.359Z,7.97
2022-12-28T08:09:17.870Z,6.85
2022-12-28T08:11:28.573Z,6.90
2022-12-28T08:13:38.168Z,7.70
2022-12-28T08:15:46.197Z,5.25
2022-12-28T08:17:59.345Z,6.55
2022-12-28T08:20:24.758Z,6.38
2022-12-28T08:22:34.344Z,5.35
2022-12-28T08:24:44.894Z,5.43
2022-12-28T08:26:53.533Z,6.15
2022-12-28T08:29:05.717Z,5.47
2022-12-28T08:31:17.449Z,5.65
2022-12-28T08:33:26.781Z,9.88
2022-12-28T08:35:34.823Z,6.18
2022-12-28T08:37:42.966Z,6.10
2022-12-28T08:39:53.445Z,5.88
2022-12-28T08:42:01.357Z,5.05
2022-12-28T08:44:09.495Z,5.25
2022-12-28T08:46:20.617Z,5.07
2022-12-28T08:48:28.978Z,5.57
2022-12-28T08:50:36.994Z,5.57
2022-12-28T08:52:44.821Z,5.13
2022-12-28T08:54:56.260Z,5.63
2022-12-28T08:57:04.121Z,6.20
2022-12-28T08:59:12.359Z,5.47
2022-12-28T09:01:21.945Z,5.57
2022-12-28T09:03:30.360Z,5.82
2022-12-28T09:05:40.489Z,5.70
2022-12-28T09:07:48.841Z,5.72
2022-12-28T09:09:59.829Z,5.40
2022-12-28T09:12:13.234Z,6.35
2022-12-28T09:14:24.027Z,17.15
2022-12-28T09:16:33.574Z,9.00
2022-12-28T09:18:42.048Z,6.68
2022-12-28T09:20:50.620Z,6.13
2022-12-28T09:22:58.532Z,5.35
2022-12-28T09:25:09.948Z,4.70
2022-12-28T09:27:17.809Z,5.82
2022-12-28T09:29:26.437Z,5.18
2022-12-28T09:31:37.556Z,5.22
2022-12-28T09:36:36.203Z,4.20
2022-12-28T09:38:44.163Z,4.60
2022-12-28T09:40:55.127Z,4.70
2022-12-28T09:43:02.946Z,10.02
2022-12-28T09:45:15.831Z,4.55
2022-12-28T09:47:33.223Z,5.10
2022-12-28T09:49:54.881Z,4.05
2022-12-28T09:52:23.259Z,5.38
2022-12-28T09:54:31.181Z,4.07
2022-12-28T09:56:45.933Z,3.45
2022-12-28T09:58:55.138Z,3.97
2022-12-28T10:01:05.958Z,3.90
2022-12-28T10:03:19.108Z,3.95
2022-12-28T10:05:27.959Z,3.97
2022-12-28T10:07:35.871Z,4.70
2022-12-28T10:09:43.993Z,4.15
2022-12-28T10:11:54.949Z,4.85
2022-12-28T10:14:06.554Z,4.30
2022-12-28T10:16:20.962Z,4.05
2022-12-28T10:18:36.059Z,4.95
2022-12-28T10:20:47.474Z,4.38
2022-12-28T10:22:59.203Z,4.13
2022-12-28T10:25:17.407Z,4.50
2022-12-28T10:27:43.262Z,3.83
2022-12-28T10:29:54.858Z,3.67
2022-12-28T10:32:05.307Z,4.88
2022-12-28T10:34:22.904Z,3.53
2022-12-28T10:36:36.173Z,3.50
2022-12-28T10:38:56.587Z,4.38
2022-12-28T10:41:08.235Z,3.30
2022-12-28T10:43:24.362Z,3.45
2022-12-28T10:45:39.211Z,3.72
2022-12-28T10:47:50.407Z,3.25
2022-12-28T10:52:26.952Z,3.78
2022-12-28T10:54:37.393Z,4.15
2022-12-28T10:56:51.876Z,4.68
2022-12-28T10:59:23.008Z,4.65
2022-12-28T11:01:33.024Z,3.60
2022-12-28T11:03:43.430Z,4.00
2022-12-28T11:05:57.329Z,4.00
2022-12-28T11:08:08.655Z,3.78
2022-12-28T11:10:34.328Z,3.53
2022-12-28T11:12:46.244Z,3.83
2022-12-28T11:14:57.132Z,4.25
2022-12-28T11:17:21.402Z,4.72
2022-12-28T11:19:29.452Z,4.10
2022-12-28T11:21:38.822Z,4.60
2022-12-28T11:23:47.053Z,4.82
2022-12-28T11:25:55.521Z,5.68
2022-12-28T11:28:04.178Z,4.63
2022-12-28T11:30:18.188Z,3.90
2022-12-28T11:32:29.383Z,4.50
2022-12-28T11:34:40.304Z,5.28
2022-12-28T11:36:48.755Z,4.78
2022-12-28T11:38:58.630Z,6.15
2022-12-28T11:41:06.578Z,4.72
2022-12-28T11:43:42.634Z,4.90
2022-12-28T11:45:55.116Z,4.85
2022-12-28T11:48:41.158Z,5.28
2022-12-28T11:50:54.613Z,5.10
2022-12-28T11:53:04.752Z,5.40
2022-12-28T11:55:46.258Z,3.63
2022-12-28T11:57:54.207Z,5.43
2022-12-28T12:00:42.175Z,4.05
2022-12-28T12:03:01.428Z,3.95
2022-12-28T12:05:39.303Z,3.58
2022-12-28T12:07:51.610Z,3.00
2022-12-28T12:10:31.613Z,3.55
2022-12-28T12:12:49.240Z,3.80
2022-12-28T12:15:00.970Z,4.15
2022-12-28T12:17:15.967Z,4.00
2022-12-28T12:19:33.829Z,4.28
2022-12-28T12:21:48.543Z,4.32
2022-12-28T12:24:04.577Z,3.80
2022-12-28T12:26:30.625Z,3.97
2022-12-28T12:28:43.668Z,3.10
2022-12-28T12:30:52.472Z,3.83
2022-12-28T12:33:04.638Z,4.28
2022-12-28T12:35:19.864Z,3.30
2022-12-28T12:37:39.373Z,3.78
2022-12-28T12:40:19.809Z,4.90
2022-12-28T12:42:40.423Z,2.85
2022-12-28T12:44:56.720Z,3.03
2022-12-28T12:47:36.576Z,4.05
2022-12-28T12:50:04.586Z,3.30
2022-12-28T12:52:26.792Z,2.90
2022-12-28T12:54:52.277Z,3.20
2022-12-28T12:57:06.545Z,3.00
2022-12-28T12:59:37.518Z,2.78
2022-12-28T13:01:54.573Z,2.95
2022-12-28T13:04:10.353Z,3.10
2022-12-28T13:06:22.515Z,2.75
2022-12-28T13:08:46.255Z,3.00
2022-12-28T13:10:56.086Z,3.40
2022-12-28T13:13:06.279Z,3.05
2022-12-28T13:15:19.884Z,3.30
2022-12-28T13:18:34.459Z,3.10
2022-12-28T13:20:30.318Z,3.80
2022-12-28T13:22:38.874Z,5.18
2022-12-28T13:24:49.374Z,2.78
2022-12-28T13:26:58.315Z,2.85
2022-12-28T13:29:14.008Z,2.55
2022-12-28T13:31:24.149Z,2.83
2022-12-28T13:33:34.490Z,3.03
2022-12-28T13:35:42.183Z,3.00
2022-12-28T13:38:07.112Z,2.45
2022-12-28T13:40:20.584Z,2.92
2022-12-28T13:42:36.685Z,2.80
2022-12-28T13:44:59.075Z,3.45
2022-12-28T13:47:16.464Z,3.30
2022-12-28T13:49:25.907Z,2.75
2022-12-28T13:51:34.004Z,2.53
2022-12-28T13:53:42.388Z,2.80
2022-12-28T13:55:55.954Z,2.50
2022-12-28T13:58:14.463Z,2.40
2022-12-28T14:00:25.379Z,2.30
2022-12-28T14:02:33.462Z,4.05
2022-12-28T14:04:53.125Z,2.30
2022-12-28T14:07:03.836Z,2.00
2022-12-28T14:09:14.664Z,2.40
2022-12-28T14:11:25.746Z,3.08
2022-12-28T14:13:34.740Z,4.22
2022-12-28T14:15:43.245Z,2.90
2022-12-28T14:17:53.523Z,2.30
2022-12-28T14:20:01.962Z,3.35
2022-12-28T14:22:28.188Z,3.42
2022-12-28T14:24:36.177Z,5.10
2022-12-28T14:26:51.533Z,6.00
2022-12-28T14:28:59.826Z,5.30
2022-12-28T14:31:10.217Z,5.05
2022-12-28T14:33:25.033Z,4.10
2022-12-28T14:35:33.396Z,3.63
2022-12-28T14:37:43.608Z,4.45
2022-12-28T14:39:52.458Z,5.32
2022-12-28T14:42:04.674Z,5.60
2022-12-28T14:44:18.539Z,6.97
2022-12-28T14:46:34.163Z,6.47
2022-12-28T14:48:45.013Z,5.82
2022-12-28T14:51:01.777Z,5.32
2022-12-28T14:53:13.962Z,4.50
2022-12-28T14:55:38.431Z,4.47
2022-12-28T14:57:50.914Z,6.35
2022-12-28T15:00:05.188Z,6.05
2022-12-28T15:02:43.359Z,6.80
2022-12-28T15:04:54.639Z,7.43
2022-12-28T15:07:07.885Z,7.57
2022-12-28T15:09:17.875Z,7.85
2022-12-28T15:11:28.023Z,8.13
2022-12-28T15:13:38.872Z,8.15
2022-12-28T15:15:46.851Z,7.07
2022-12-28T15:17:59.488Z,6.78
2022-12-28T15:20:11.434Z,8.68
2022-12-28T15:22:20.810Z,8.30
2022-12-28T15:24:33.872Z,6.82
2022-12-28T15:26:42.291Z,6.30
2022-12-28T15:28:53.678Z,7.68
2022-12-28T15:31:01.869Z,6.47
2022-12-28T15:33:09.785Z,6.80
2022-12-28T15:35:20.830Z,5.80
2022-12-28T15:37:28.807Z,5.38
2022-12-28T15:39:36.829Z,5.18
2022-12-28T15:41:51.270Z,7.28
2022-12-28T15:44:02.371Z,7.30
2022-12-28T15:46:10.427Z,6.53
2022-12-28T15:48:18.833Z,5.47
2022-12-28T15:50:26.702Z,6.68
2022-12-28T15:52:35.384Z,6.30
2022-12-28T15:54:47.214Z,6.40
2022-12-28T15:56:59.091Z,6.90
2022-12-28T15:59:14.709Z,7.25
2022-12-28T16:01:23.259Z,8.43
2022-12-28T16:03:31.268Z,6.30
2022-12-28T16:05:39.293Z,6.35
2022-12-28T16:07:47.256Z,5.68
2022-12-28T16:09:55.072Z,5.65
2022-12-28T16:12:03.480Z,8.63
2022-12-28T16:14:18.151Z,12.80
2022-12-28T16:16:27.672Z,12.43
2022-12-28T16:18:35.677Z,14.10
2022-12-28T16:20:43.673Z,10.60
2022-12-28T16:22:53.993Z,9.60
2022-12-28T16:25:02.145Z,13.32
2022-12-28T16:27:10.001Z,11.27
2022-12-28T16:29:20.717Z,10.50
2022-12-28T16:31:30.769Z,9.02
2022-12-28T16:33:38.651Z,8.40
2022-12-28T16:35:46.855Z,6.93
2022-12-28T16:37:55.410Z,6.32
2022-12-28T16:40:03.339Z,8.43
2022-12-28T16:42:11.163Z,7.03
2022-12-28T16:44:24.035Z,8.43
2022-12-28T16:46:31.877Z,7.60
2022-12-28T16:48:40.285Z,7.05
2022-12-28T16:50:48.180Z,7.32
2022-12-28T16:53:00.985Z,6.72
2022-12-28T16:55:09.275Z,9.25
2022-12-28T16:57:17.212Z,13.40
2022-12-28T16:59:29.569Z,12.55
2022-12-28T17:01:37.640Z,10.32
2022-12-28T17:03:45.843Z,10.50
2022-12-28T17:05:55.277Z,10.32
2022-12-28T17:08:03.428Z,9.73
2022-12-28T17:10:13.971Z,9.48
2022-12-28T17:12:21.858Z,11.73
2022-12-28T17:14:37.770Z,11.98
2022-12-28T17:16:46.173Z,10.20
2022-12-28T17:18:54.224Z,10.80
2022-12-28T17:21:06.734Z,11.45
2022-12-28T17:23:15.958Z,10.75
2022-12-28T17:25:23.945Z,14.05
2022-12-28T17:27:31.888Z,11.75
2022-12-28T17:29:42.820Z,9.85
2022-12-28T17:31:51.004Z,8.93
2022-12-28T17:34:00.724Z,8.45
2022-12-28T17:36:09.296Z,8.93
2022-12-28T17:38:17.702Z,13.10
2022-12-28T17:40:25.518Z,11.45
2022-12-28T17:42:33.630Z,9.60
2022-12-28T17:44:48.679Z,8.63
2022-12-28T17:46:56.544Z,8.00
2022-12-28T17:49:04.520Z,8.40
2022-12-28T17:51:13.035Z,9.07
2022-12-28T17:53:20.986Z,10.98
2022-12-28T17:55:29.061Z,9.07
2022-12-28T17:57:38.944Z,8.45
2022-12-28T17:59:49.351Z,11.35
2022-12-28T18:01:57.481Z,9.98
2022-12-28T18:04:05.456Z,10.57
2022-12-28T18:06:13.423Z,11.45
2022-12-28T18:08:22.389Z,9.70
2022-12-28T18:10:30.403Z,9.73
2022-12-28T18:12:38.508Z,9.95
2022-12-28T18:14:49.226Z,11.63
2022-12-28T18:16:57.760Z,8.65
2022-12-28T18:19:06.305Z,8.15
2022-12-28T18:21:21.327Z,9.82
2022-12-28T18:23:30.547Z,10.52
2022-12-28T18:25:39.394Z,9.73
2022-12-28T18:27:47.319Z,9.80
2022-12-28T18:29:59.776Z,9.02
2022-12-28T18:32:08.231Z,10.52
2022-12-28T18:34:16.970Z,7.13
2022-12-28T18:36:25.148Z,7.85
2022-12-28T18:38:35.705Z,9.77
2022-12-28T18:40:43.741Z,6.90
2022-12-28T18:42:52.159Z,6.70
2022-12-28T18:45:03.301Z,6.10
2022-12-28T18:47:11.420Z,6.03
2022-12-28T18:49:20.130Z,6.75
2022-12-28T18:51:28.389Z,6.28
2022-12-28T18:53:36.855Z,6.57
2022-12-28T18:55:45.716Z,8.57
2022-12-28T18:57:53.750Z,6.93
2022-12-28T19:00:04.426Z,8.07
2022-12-28T19:02:19.246Z,9.20
2022-12-28T19:04:29.484Z,11.32
2022-12-28T19:06:37.746Z,9.15
2022-12-28T19:08:47.092Z,10.57
2022-12-28T19:10:54.954Z,8.90
2022-12-28T19:13:02.994Z,7.10
2022-12-28T19:15:17.581Z,7.07
2022-12-28T19:17:27.122Z,5.88
2022-12-28T19:19:37.654Z,5.88
2022-12-28T19:21:46.886Z,5.95
2022-12-28T19:23:55.568Z,5.38
2022-12-28T19:26:03.565Z,7.25
2022-12-28T19:28:11.605Z,5.32
2022-12-28T19:30:22.035Z,6.30
2022-12-28T19:32:29.812Z,6.93
2022-12-28T19:34:37.995Z,6.70
2022-12-28T19:36:46.241Z,6.53
2022-12-28T19:38:56.137Z,7.40
2022-12-28T19:41:08.184Z,13.45
2022-12-28T19:43:16.202Z,7.30
2022-12-28T19:45:27.135Z,7.55
2022-12-28T19:47:35.005Z,6.18
2022-12-28T19:49:43.063Z,7.55
2022-12-28T19:51:51.285Z,8.65
2022-12-28T19:53:59.365Z,9.48
2022-12-28T19:56:10.148Z,7.55
2022-12-28T19:58:20.702Z,8.02
2022-12-28T20:00:31.522Z,9.15
2022-12-28T20:02:39.549Z,7.95
2022-12-28T20:04:47.460Z,8.90
2022-12-28T20:06:55.570Z,9.93
2022-12-28T20:09:05.769Z,7.05
2022-12-28T20:11:13.592Z,7.82
2022-12-28T20:13:21.707Z,8.95
2022-12-28T20:15:34.102Z,11.85
2022-12-28T20:17:46.750Z,10.57
2022-12-28T20:19:54.696Z,11.35
2022-12-28T20:22:02.921Z,11.85
2022-12-28T20:24:11.755Z,11.75
2022-12-28T20:26:20.965Z,11.77
2022-12-28T20:28:30.236Z,11.13
2022-12-28T20:30:40.671Z,12.32
2022-12-28T20:32:48.521Z,10.63
2022-12-28T20:34:56.998Z,10.07
2022-12-28T20:37:05.163Z,8.48
2022-12-28T20:39:13.051Z,9.32
2022-12-28T20:41:35.503Z,8.75
2022-12-28T20:43:45.852Z,7.72
2022-12-28T20:45:56.476Z,8.23
2022-12-28T20:48:04.853Z,6.57
2022-12-28T20:50:13.145Z,6.70
2022-12-28T20:52:21.404Z,8.38
2022-12-28T20:54:29.558Z,8.07
2022-12-28T20:56:38.741Z,7.28
2022-12-28T20:58:46.772Z,7.60
2022-12-28T21:00:57.351Z,6.55
2022-12-28T21:03:05.337Z,6.60
2022-12-28T21:05:14.007Z,6.55
2022-12-28T21:07:22.495Z,6.15
2022-12-28T21:09:30.373Z,6.88
2022-12-28T21:11:38.253Z,6.82
2022-12-28T21:13:46.190Z,6.32
2022-12-28T21:15:54.604Z,7.10
2022-12-28T21:18:05.253Z,8.48
2022-12-28T21:20:14.408Z,7.50
2022-12-28T21:22:22.435Z,9.13
2022-12-28T21:24:30.526Z,8.73
2022-12-28T21:26:38.620Z,7.72
2022-12-28T21:28:47.123Z,6.68
2022-12-28T21:30:58.266Z,6.70
2022-12-28T21:33:09.269Z,7.65
2022-12-28T21:35:17.152Z,7.00
2022-12-28T21:37:39.662Z,6.63
2022-12-28T21:39:47.844Z,6.25
2022-12-28T21:41:55.978Z,5.50
2022-12-28T21:44:03.840Z,6.22
2022-12-28T21:46:14.696Z,5.88
2022-12-28T21:48:29.608Z,5.85
2022-12-28T21:50:37.515Z,4.93
2022-12-28T21:52:45.425Z,5.00
2022-12-28T21:54:53.463Z,4.70
2022-12-28T21:57:01.351Z,3.75
2022-12-28T21:59:10.297Z,6.50
2022-12-28T22:01:30.775Z,4.50
2022-12-28T22:03:54.075Z,3.80
2022-12-28T22:06:06.650Z,6.03
2022-12-28T22:08:26.906Z,3.72
2022-12-28T22:10:56.065Z,4.55
2022-12-28T22:13:04.196Z,4.18
2022-12-28T22:15:27.864Z,3.80
2022-12-28T22:17:35.807Z,4.80
2022-12-28T22:19:46.601Z,3.63
2022-12-28T22:21:54.503Z,4.30
2022-12-28T22:24:02.524Z,4.75
2022-12-28T22:26:10.936Z,5.05
2022-12-28T22:28:19.189Z,4.63
2022-12-28T22:30:27.249Z,4.20
2022-12-28T22:32:35.255Z,4.57
2022-12-28T22:34:43.444Z,5.05
2022-12-28T22:36:54.185Z,5.60
2022-12-28T22:39:02.370Z,4.97
2022-12-28T22:41:10.337Z,5.53
2022-12-28T22:43:18.427Z,4.70
2022-12-28T22:45:26.767Z,5.22
2022-12-28T22:47:34.916Z,5.10
2022-12-28T22:49:42.677Z,4.88
2022-12-28T22:51:53.235Z,5.05
2022-12-28T22:54:01.065Z,6.00
2022-12-28T22:56:12.489Z,4.70
2022-12-28T22:58:20.461Z,4.10
2022-12-28T23:00:28.461Z,4.97
2022-12-28T23:02:36.466Z,5.13
2022-12-28T23:04:44.604Z,4.78
2022-12-28T23:06:58.595Z,4.53
2022-12-28T23:09:11.150Z,4.57
2022-12-28T23:11:33.024Z,5.32
2022-12-28T23:13:40.943Z,3.97
2022-12-28T23:15:55.369Z,5.05
2022-12-28T23:18:24.303Z,3.92
2022-12-28T23:20:44.582Z,4.95
2022-12-28T23:23:07.262Z,4.22
2022-12-28T23:25:29.327Z,4.72
2022-12-28T23:27:39.992Z,4.50
2022-12-28T23:29:48.972Z,3.80
2022-12-28T23:31:57.049Z,6.05
2022-12-28T23:34:05.026Z,3.25
2022-12-28T23:36:12.961Z,4.15
2022-12-28T23:38:23.796Z,4.75
2022-12-28T23:40:31.802Z,3.45
2022-12-28T23:42:40.099Z,4.78
2022-12-28T23:44:49.822Z,4.13
2022-12-28T23:46:59.565Z,3.58
2022-12-28T23:49:08.404Z,3.38
2022-12-28T23:51:18.207Z,4.05
2022-12-28T23:53:29.024Z,3.63
2022-12-28T23:55:38.542Z,3.25
2022-12-28T23:57:46.549Z,4.75
2022-12-28T23:59:54.447Z,3.25
